logo
Search for airport 
image banner adimage banner adimage banner ad
image banner ad

FACAPE - Cape Blue Mine

Located in , South Africa

ICAO - , IATA -

Data provided by Airmate  

General information

Coordinates: S29°20'5" E22°15'53"
Elevation is 3051 feet MSL.
 
View others Airports in Northern Cape

Operational data

Special qualification required
Current time UTC:
Current local time:
Weather at : - ( 0 km )
METAR: PAVC 181048Z AUTO 26009KT 10SM -RA FEW025 OVC032 02/01 A2956 RMK AO2 FZRANO PNO $
View NOTAMs / SUP AIP / TFR affecting this airport [VIEW]
Communications frequencies: [VIEW]

Runways:

RWY identifierQFULength (ft)Width (ft)SurfaceLDA (ft)
0558°328149SAND
23238°328149SAND
15133°190333SAND
33313°190333SAND

Airport contact information

Address: South Africa

Satellite view of FACAPE